Time;durP1;ratioP1;P1;durP2;ratioP2;P2;SDS_P1;SDS_P2;PMS_P1;PMS_P2;Temp;Humidity;BMP_temperature;BMP_pressure;BME280_temperature;BME280_humidity;BME280_pressure;Samples;Min_cycle;Max_cycle;Signal;HPM_P1;HPM_P2
2023/03/01 00:01:39;;;;;;;26.73;16.90;;;1.20;99.90;;;;;;6062220;23;98027;-77
2023/03/01 00:04:06;;;;;;;27.35;16.38;;;1.20;99.90;;;;;;6038872;23;98360;-77
2023/03/01 00:06:33;;;;;;;25.85;16.00;;;1.10;99.90;;;;;;6088398;23;92563;-77
2023/03/01 00:09:00;;;;;;;25.30;16.77;;;1.10;99.90;;;;;;6064121;23;92496;-77
2023/03/01 00:11:29;;;;;;;25.60;16.90;;;1.10;99.90;;;;;;6063306;23;93117;-77
2023/03/01 00:14:00;;;;;;;25.73;16.15;;;1.10;99.90;;;;;;6065343;23;93017;-77
2023/03/01 00:16:38;;;;;;;26.85;17.27;;;1.00;99.90;;;;;;6065366;23;92324;-77
2023/03/01 00:19:07;;;;;;;27.80;16.95;;;1.00;99.90;;;;;;6065929;23;91668;-77
2023/03/01 00:21:35;;;;;;;24.55;16.00;;;1.00;99.90;;;;;;6065302;23;93213;-77
2023/03/01 00:24:02;;;;;;;25.83;15.90;;;1.00;99.90;;;;;;6087714;23;93014;-77
2023/03/01 00:26:30;;;;;;;21.73;14.98;;;1.00;99.90;;;;;;6063938;23;95048;-77
2023/03/01 00:28:58;;;;;;;21.20;14.13;;;1.00;99.90;;;;;;6088211;23;92454;-77
2023/03/01 00:31:29;;;;;;;20.98;14.27;;;1.00;99.90;;;;;;6038704;23;95893;-77
2023/03/01 00:33:58;;;;;;;20.10;13.82;;;1.00;99.90;;;;;;6039404;23;95602;-77
2023/03/01 00:36:31;;;;;;;22.98;15.32;;;0.90;99.90;;;;;;6038969;23;92396;-77
2023/03/01 00:38:59;;;;;;;23.58;14.50;;;0.90;99.90;;;;;;6063885;23;92403;-77
2023/03/01 00:41:26;;;;;;;21.88;13.75;;;0.90;99.90;;;;;;6087368;23;96074;-77
2023/03/01 00:43:54;;;;;;;23.10;14.98;;;0.90;99.90;;;;;;6063945;23;95752;-77
2023/03/01 00:46:23;;;;;;;23.45;14.88;;;0.80;99.90;;;;;;6087585;23;92428;-77
2023/03/01 00:48:51;;;;;;;25.10;15.00;;;0.80;99.90;;;;;;6087891;23;92436;-77
2023/03/01 00:51:20;;;;;;;22.17;13.40;;;0.80;99.90;;;;;;6037266;23;98175;-77
2023/03/01 00:53:50;;;;;;;21.15;13.05;;;0.80;99.90;;;;;;6063105;23;97916;-77
2023/03/01 00:56:19;;;;;;;18.42;11.68;;;0.80;99.90;;;;;;6088038;23;92589;-77
2023/03/01 00:58:46;;;;;;;20.48;11.90;;;0.80;99.90;;;;;;6063083;23;92609;-77
2023/03/01 01:01:19;;;;;;;15.32;10.60;;;0.70;99.90;;;;;;6063384;23;96069;-77
2023/03/01 01:03:48;;;;;;;16.75;10.63;;;0.70;99.90;;;;;;6064799;23;93172;-77
2023/03/01 01:06:21;;;;;;;15.18;10.02;;;0.70;99.90;;;;;;6064569;23;92921;-77
2023/03/01 01:08:50;;;;;;;16.05;10.60;;;0.70;99.90;;;;;;6089639;23;91691;-77
2023/03/01 01:11:17;;;;;;;17.83;9.70;;;0.70;99.90;;;;;;6088220;23;102114;-77
2023/03/01 01:13:46;;;;;;;18.95;10.27;;;0.60;99.90;;;;;;6089738;23;92913;-77
2023/03/01 01:16:14;;;;;;;16.90;11.40;;;0.60;99.90;;;;;;6038318;23;94868;-77
2023/03/01 01:18:41;;;;;;;19.48;12.25;;;0.60;99.90;;;;;;6040221;23;92367;-77
2023/03/01 01:21:11;;;;;;;17.52;11.68;;;0.60;99.90;;;;;;6064392;23;93093;-77
2023/03/01 01:23:39;;;;;;;17.58;11.63;;;0.60;99.90;;;;;;6039993;23;95469;-77
2023/03/01 01:26:11;;;;;;;18.52;12.25;;;0.60;99.90;;;;;;6064407;23;92455;-77
2023/03/01 01:28:39;;;;;;;20.50;12.68;;;0.60;99.90;;;;;;6066446;23;92442;-77
2023/03/01 01:31:07;;;;;;;19.25;12.75;;;0.60;99.90;;;;;;6039766;23;99659;-77
2023/03/01 01:33:34;;;;;;;21.00;12.77;;;0.50;99.90;;;;;;6089261;23;92919;-77
2023/03/01 01:36:01;;;;;;;17.95;12.38;;;0.50;99.90;;;;;;6066306;23;92381;-77
2023/03/01 01:38:29;;;;;;;19.38;12.45;;;0.50;99.90;;;;;;6088734;23;92481;-77
2023/03/01 01:40:56;;;;;;;21.13;12.52;;;0.50;99.90;;;;;;6064623;23;95550;-77
2023/03/01 01:43:34;;;;;;;20.05;13.90;;;0.50;99.90;;;;;;6088404;23;97941;-77
2023/03/01 01:46:41;;;;;;;19.77;13.18;;;0.50;99.90;;;;;;6066375;23;92390;-77
2023/03/01 01:49:23;;;;;;;21.85;13.43;;;0.50;99.90;;;;;;6010135;23;92983;-77
2023/03/01 01:52:01;;;;;;;21.60;13.77;;;0.50;99.90;;;;;;6062865;23;93282;-77
2023/03/01 01:54:36;;;;;;;17.77;12.52;;;0.50;99.90;;;;;;6065854;23;93119;-77
2023/03/01 01:57:17;;;;;;;17.60;11.65;;;0.50;99.90;;;;;;6066269;23;92397;-77
2023/03/01 01:59:52;;;;;;;16.40;12.38;;;0.50;99.90;;;;;;6089728;23;91565;-77
2023/03/01 02:02:19;;;;;;;19.30;13.23;;;0.40;99.90;;;;;;6064155;23;93314;-77
2023/03/01 02:04:49;;;;;;;17.70;12.77;;;0.40;99.90;;;;;;6088447;23;102033;-77
2023/03/01 02:07:20;;;;;;;19.73;12.55;;;0.30;99.90;;;;;;6062660;23;94854;-77
2023/03/01 02:09:50;;;;;;;18.63;11.75;;;0.30;99.90;;;;;;6064407;23;92421;-77
2023/03/01 02:12:21;;;;;;;19.08;12.38;;;0.30;99.90;;;;;;6064131;23;93166;-77
2023/03/01 02:14:48;;;;;;;16.98;11.98;;;0.30;99.90;;;;;;6039790;23;95465;-77
2023/03/01 02:17:24;;;;;;;18.88;12.20;;;0.30;99.90;;;;;;6086673;23;92443;-77
2023/03/01 02:20:18;;;;;;;17.70;11.93;;;0.20;99.90;;;;;;6088823;23;92446;-77
2023/03/01 02:22:46;;;;;;;16.08;12.68;;;0.20;99.90;;;;;;6038634;23;93262;-77
2023/03/01 02:25:19;;;;;;;21.17;13.68;;;0.20;99.90;;;;;;6038856;23;95380;-77
2023/03/01 02:28:10;;;;;;;19.60;13.02;;;0.20;99.90;;;;;;6087284;23;92405;-76
2023/03/01 02:31:41;;;;;;;21.63;13.85;;;0.20;99.90;;;;;;6064321;23;92431;-77
2023/03/01 02:33:26;;;;;;;22.40;14.32;;;0.20;99.90;;;;;;6062196;23;95609;-76
2023/03/01 02:35:54;;;;;;;22.40;14.40;;;0.10;99.90;;;;;;6086644;23;98466;-77
2023/03/01 02:38:22;;;;;;;20.40;13.40;;;0.10;99.90;;;;;;6038129;23;92478;-77
2023/03/01 02:40:50;;;;;;;19.98;13.48;;;0.10;99.90;;;;;;6062316;23;93079;-77
2023/03/01 02:43:20;;;;;;;20.85;13.35;;;0.10;99.90;;;;;;6061816;23;99131;-76
2023/03/01 02:45:52;;;;;;;22.25;13.60;;;0.10;99.90;;;;;;6061582;23;95920;-76
2023/03/01 02:48:20;;;;;;;19.30;13.13;;;0.10;99.90;;;;;;6087148;23;92361;-76
2023/03/01 02:51:07;;;;;;;19.23;13.45;;;0.10;99.90;;;;;;6087228;23;91689;-76
2023/03/01 02:53:50;;;;;;;19.00;12.90;;;0.00;99.90;;;;;;6062421;23;93282;-76
2023/03/01 02:56:17;;;;;;;19.25;13.32;;;0.10;99.90;;;;;;6086450;23;95739;-76
2023/03/01 02:58:47;;;;;;;22.27;13.55;;;0.00;99.90;;;;;;6036288;23;94907;-76
2023/03/01 03:01:15;;;;;;;20.85;13.45;;;0.00;99.90;;;;;;6087119;23;92517;-76
2023/03/01 03:03:43;;;;;;;22.48;13.80;;;-0.10;99.90;;;;;;6086285;23;95462;-76
2023/03/01 03:06:10;;;;;;;22.48;14.38;;;-0.10;99.90;;;;;;6061890;23;93882;-76
2023/03/01 03:08:37;;;;;;;23.00;14.40;;;-0.10;99.90;;;;;;6061797;23;92388;-76
2023/03/01 03:11:04;;;;;;;23.45;14.55;;;-0.10;99.90;;;;;;6086512;23;92476;-76
2023/03/01 03:13:32;;;;;;;21.23;13.48;;;-0.20;99.90;;;;;;6063657;23;93296;-76
2023/03/01 03:15:59;;;;;;;21.35;13.98;;;-0.20;99.90;;;;;;6064272;23;93163;-76
2023/03/01 03:18:26;;;;;;;22.13;14.80;;;-0.20;99.90;;;;;;6086898;23;92673;-76
2023/03/01 03:20:54;;;;;;;23.83;14.73;;;-0.20;99.90;;;;;;6063884;23;92366;-76
2023/03/01 03:23:21;;;;;;;21.50;13.50;;;-0.20;99.90;;;;;;6008808;23;1238353;-76
2023/03/01 03:25:52;;;;;;;22.60;13.85;;;-0.20;99.90;;;;;;6088098;23;96984;-76
2023/03/01 03:28:19;;;;;;;22.00;13.80;;;-0.20;99.90;;;;;;6065862;23;92306;-76
2023/03/01 03:30:46;;;;;;;20.27;13.18;;;-0.20;99.90;;;;;;6063485;23;92492;-76
2023/03/01 03:33:13;;;;;;;20.38;13.60;;;-0.20;99.90;;;;;;6065514;23;93202;-76
2023/03/01 03:35:47;;;;;;;21.33;14.70;;;-0.20;99.90;;;;;;6063224;23;95683;-76
2023/03/01 03:38:17;;;;;;;21.90;13.75;;;-0.20;99.90;;;;;;6088768;23;92413;-76
2023/03/01 03:41:02;;;;;;;20.73;13.90;;;-0.20;99.90;;;;;;6065966;23;91699;-76
2023/03/01 03:43:32;;;;;;;18.25;13.20;;;-0.20;99.90;;;;;;6065730;23;92930;-76
2023/03/01 03:45:59;;;;;;;19.58;14.15;;;-0.30;99.90;;;;;;6039347;23;96275;-76
2023/03/01 03:48:26;;;;;;;18.63;13.43;;;-0.30;99.90;;;;;;6063943;23;97538;-76
2023/03/01 03:50:55;;;;;;;18.92;13.02;;;-0.30;99.90;;;;;;6065513;23;92420;-76
2023/03/01 03:53:24;;;;;;;16.48;11.80;;;-0.30;99.90;;;;;;6065442;23;94308;-76
2023/03/01 03:55:51;;;;;;;18.67;12.25;;;-0.30;99.90;;;;;;6088122;23;92987;-76
2023/03/01 03:58:21;;;;;;;19.63;12.43;;;-0.30;99.90;;;;;;6039641;23;92453;-76
2023/03/01 04:00:51;;;;;;;17.60;12.52;;;-0.30;99.90;;;;;;6039264;23;93004;-76
2023/03/01 04:03:19;;;;;;;18.45;12.63;;;-0.30;99.90;;;;;;6088447;23;94302;-76
2023/03/01 04:05:47;;;;;;;18.63;13.02;;;-0.40;99.90;;;;;;6065394;23;98528;-76
2023/03/01 04:08:15;;;;;;;16.35;13.00;;;-0.40;99.90;;;;;;6088087;23;92411;-76
2023/03/01 04:10:47;;;;;;;19.42;13.52;;;-0.40;99.90;;;;;;6065384;23;92804;-76
2023/03/01 04:13:19;;;;;;;16.63;12.27;;;-0.40;99.90;;;;;;6062167;23;98425;-77
2023/03/01 04:15:50;;;;;;;17.70;12.75;;;-0.50;99.90;;;;;;6065087;23;95149;-77
2023/03/01 04:18:19;;;;;;;16.60;11.85;;;-0.50;99.90;;;;;;6063887;23;92377;-77
2023/03/01 04:20:47;;;;;;;17.58;12.65;;;-0.50;99.90;;;;;;6087951;23;92514;-76
2023/03/01 04:23:19;;;;;;;17.67;12.52;;;-0.50;99.90;;;;;;6082979;23;95698;-76
2023/03/01 04:25:54;;;;;;;17.15;12.25;;;-0.60;99.90;;;;;;6034567;23;95677;-76
2023/03/01 04:28:24;;;;;;;17.17;12.07;;;-0.60;99.90;;;;;;6036587;23;92400;-76
2023/03/01 04:30:55;;;;;;;17.65;12.88;;;-0.60;99.90;;;;;;6036279;23;97261;-76
2023/03/01 04:33:23;;;;;;;17.55;11.80;;;-0.60;99.90;;;;;;6058875;23;95711;-76
2023/03/01 04:35:51;;;;;;;17.67;12.65;;;-0.60;99.90;;;;;;6035814;23;92978;-76
2023/03/01 04:38:19;;;;;;;17.25;12.73;;;-0.60;99.90;;;;;;6034975;23;94731;-76
2023/03/01 04:40:47;;;;;;;16.77;11.85;;;-0.70;99.90;;;;;;6036221;23;92876;-76
2023/03/01 04:43:14;;;;;;;18.45;13.05;;;-0.60;99.90;;;;;;6058589;23;95976;-76
2023/03/01 04:45:41;;;;;;;17.70;13.43;;;-0.70;99.90;;;;;;6058550;23;93164;-76
2023/03/01 04:48:08;;;;;;;19.95;13.73;;;-0.70;99.90;;;;;;6059068;23;92605;-76
2023/03/01 04:50:35;;;;;;;18.27;12.90;;;-0.70;99.90;;;;;;6036251;23;92488;-76
2023/03/01 04:53:02;;;;;;;17.25;12.90;;;-0.60;99.90;;;;;;6058214;23;94706;-76
2023/03/01 04:55:29;;;;;;;19.27;13.20;;;-0.70;99.90;;;;;;6036223;23;92946;-76
2023/03/01 04:57:56;;;;;;;22.42;14.90;;;-0.70;99.90;;;;;;6036071;23;92809;-76
2023/03/01 05:00:23;;;;;;;19.23;13.38;;;-0.70;99.90;;;;;;6058760;23;92464;-76
2023/03/01 05:02:55;;;;;;;16.95;12.38;;;-0.70;99.90;;;;;;6034150;23;95494;-76
2023/03/01 05:05:34;;;;;;;18.65;13.93;;;-0.70;99.90;;;;;;6035879;23;95410;-76
2023/03/01 05:08:07;;;;;;;18.13;12.90;;;-0.70;99.90;;;;;;6035892;23;92321;-76
2023/03/01 05:10:36;;;;;;;20.55;13.32;;;-0.70;99.90;;;;;;6036273;23;92308;-76
2023/03/01 05:13:03;;;;;;;19.02;13.20;;;-0.70;99.90;;;;;;6035440;23;93401;-76
2023/03/01 05:15:31;;;;;;;19.20;13.73;;;-0.80;99.90;;;;;;6035688;23;98716;-76
2023/03/01 05:18:00;;;;;;;25.58;16.08;;;-0.70;99.90;;;;;;6035881;23;92431;-76
2023/03/01 05:20:29;;;;;;;20.05;14.02;;;-0.80;99.90;;;;;;6036351;23;91729;-76
2023/03/01 05:22:58;;;;;;;20.55;14.52;;;-0.70;99.90;;;;;;6059416;23;93368;-76
2023/03/01 05:25:27;;;;;;;19.17;13.20;;;-0.70;99.90;;;;;;6087715;23;93054;-76
2023/03/01 05:27:53;;;;;;;19.45;14.00;;;-0.80;99.90;;;;;;6037060;23;95339;-76
2023/03/01 05:30:21;;;;;;;18.67;13.23;;;-0.80;99.90;;;;;;6065004;23;92384;-76
2023/03/01 05:32:55;;;;;;;18.45;13.00;;;-0.80;99.90;;;;;;6064023;23;101419;-76
2023/03/01 05:35:23;;;;;;;18.90;13.93;;;-0.80;99.90;;;;;;6087566;23;95734;-76
2023/03/01 05:37:50;;;;;;;21.50;12.93;;;-0.80;99.90;;;;;;6087531;23;92304;-76
2023/03/01 05:40:23;;;;;;;18.23;13.43;;;-0.80;99.90;;;;;;6064974;23;92408;-76
2023/03/01 05:42:54;;;;;;;18.60;12.88;;;-0.80;99.90;;;;;;6062976;23;95660;-76
2023/03/01 05:45:23;;;;;;;20.92;14.45;;;-0.90;99.90;;;;;;6063669;23;94037;-76
2023/03/01 05:47:51;;;;;;;19.73;14.38;;;-0.90;99.90;;;;;;6063748;23;92368;-76
2023/03/01 05:50:23;;;;;;;19.08;13.15;;;-0.80;99.90;;;;;;6040154;23;92940;-76
2023/03/01 05:52:56;;;;;;;18.77;13.45;;;-0.80;99.90;;;;;;6038197;23;98217;-76
2023/03/01 05:55:23;;;;;;;20.13;13.35;;;-0.80;99.90;;;;;;6088853;23;97913;-76
2023/03/01 05:57:50;;;;;;;19.30;13.68;;;-0.80;99.90;;;;;;6039323;23;106472;-76
2023/03/01 06:00:21;;;;;;;22.00;15.25;;;-0.90;99.90;;;;;;6088928;23;92410;-76
2023/03/01 06:02:48;;;;;;;20.33;14.73;;;-0.90;99.90;;;;;;6063839;23;95694;-76
2023/03/01 06:05:15;;;;;;;18.63;13.20;;;-0.90;99.90;;;;;;6088806;23;92933;-76
2023/03/01 06:07:43;;;;;;;20.58;14.77;;;-0.90;99.90;;;;;;6064260;23;92523;-76
2023/03/01 06:10:11;;;;;;;19.33;13.98;;;-0.90;99.90;;;;;;6088610;23;91765;-76
2023/03/01 06:12:40;;;;;;;19.00;13.93;;;-0.90;99.90;;;;;;6065210;23;103789;-76
2023/03/01 06:15:09;;;;;;;20.48;14.07;;;-0.90;99.90;;;;;;6063817;23;92933;-76
2023/03/01 06:17:38;;;;;;;18.90;14.05;;;-1.00;99.90;;;;;;6064887;23;95393;-76
2023/03/01 06:20:08;;;;;;;22.30;14.02;;;-0.90;99.90;;;;;;6065905;23;92490;-76
2023/03/01 06:22:35;;;;;;;20.17;14.15;;;-0.90;99.90;;;;;;6039545;23;95658;-76
2023/03/01 06:25:02;;;;;;;20.88;14.43;;;-0.90;99.90;;;;;;6063477;23;92495;-76
2023/03/01 06:27:29;;;;;;;21.10;13.93;;;-0.90;99.90;;;;;;6066191;23;92350;-76
2023/03/01 06:29:56;;;;;;;19.77;14.45;;;-0.90;99.90;;;;;;6088770;23;92516;-76
2023/03/01 06:32:23;;;;;;;19.15;14.07;;;-0.90;99.90;;;;;;6065798;23;93172;-76
2023/03/01 06:34:50;;;;;;;20.42;14.57;;;-0.90;99.90;;;;;;6064572;23;95503;-76
2023/03/01 06:37:17;;;;;;;21.85;14.82;;;-0.90;99.90;;;;;;6064119;23;92716;-76
2023/03/01 06:39:44;;;;;;;19.85;14.13;;;-0.80;99.90;;;;;;6088664;23;92498;-77
2023/03/01 06:42:11;;;;;;;23.00;15.45;;;-0.80;99.90;;;;;;6061315;23;110458;-76
2023/03/01 06:44:38;;;;;;;20.75;14.75;;;-0.70;99.90;;;;;;6088475;23;95416;-76
2023/03/01 06:47:05;;;;;;;23.55;14.60;;;-0.60;99.90;;;;;;6065786;23;92787;-76
2023/03/01 06:49:32;;;;;;;18.02;13.55;;;-0.50;99.90;;;;;;6066033;23;92416;-76
2023/03/01 06:51:59;;;;;;;18.48;13.70;;;-0.40;99.90;;;;;;6088285;23;95574;-76
2023/03/01 06:54:26;;;;;;;18.65;13.77;;;-0.30;99.90;;;;;;6065698;23;93079;-76
2023/03/01 06:56:53;;;;;;;20.15;13.75;;;-0.20;99.90;;;;;;6063938;23;97766;-76
2023/03/01 06:59:20;;;;;;;19.20;13.05;;;-0.10;99.90;;;;;;6065393;23;91658;-76
2023/03/01 07:01:47;;;;;;;19.92;14.05;;;0.00;99.90;;;;;;6088166;23;95761;-76
2023/03/01 07:04:14;;;;;;;18.75;14.50;;;0.20;99.90;;;;;;6063802;23;95577;-76
2023/03/01 07:06:41;;;;;;;18.27;13.60;;;0.30;99.90;;;;;;6064620;23;95248;-76
2023/03/01 07:09:08;;;;;;;18.05;13.30;;;0.40;99.90;;;;;;6088123;23;92397;-76
2023/03/01 07:11:35;;;;;;;16.52;12.10;;;0.50;99.90;;;;;;6088406;23;92549;-76
2023/03/01 07:14:03;;;;;;;16.73;12.82;;;0.70;99.90;;;;;;6088474;23;93111;-76
2023/03/01 07:16:30;;;;;;;15.80;12.48;;;0.80;99.90;;;;;;6088403;23;92410;-76
2023/03/01 07:18:57;;;;;;;17.70;12.48;;;0.90;99.90;;;;;;6066034;23;92471;-76
2023/03/01 07:21:25;;;;;;;16.92;12.65;;;1.10;99.90;;;;;;6063916;23;93180;-76
2023/03/01 07:23:52;;;;;;;18.40;13.05;;;1.30;99.90;;;;;;6083548;23;95723;-76
2023/03/01 07:26:19;;;;;;;17.85;12.93;;;1.50;99.90;;;;;;6036581;23;92352;-76
2023/03/01 07:28:46;;;;;;;16.45;12.20;;;1.70;99.90;;;;;;6059507;23;92398;-76
2023/03/01 07:31:13;;;;;;;16.63;12.15;;;2.00;99.90;;;;;;6032696;23;104215;-76
2023/03/01 07:33:40;;;;;;;16.35;12.20;;;2.20;99.90;;;;;;6057954;23;95329;-76
2023/03/01 07:36:09;;;;;;;15.60;12.02;;;2.50;99.90;;;;;;6036345;23;92322;-76
2023/03/01 07:38:35;;;;;;;15.70;13.85;;;2.70;99.90;;;;;;6010870;23;93281;-77
2023/03/01 07:41:03;;;;;;;17.63;14.05;;;2.90;99.90;;;;;;6058657;23;93348;-77
2023/03/01 07:43:31;;;;;;;19.52;13.95;;;3.00;99.90;;;;;;6034588;23;95458;-77
2023/03/01 07:46:03;;;;;;;20.08;15.48;;;3.20;99.90;;;;;;6036736;23;92772;-77
2023/03/01 07:48:31;;;;;;;34.53;21.83;;;3.30;99.90;;;;;;6059637;23;91740;-77
2023/03/01 07:50:59;;;;;;;34.65;21.45;;;3.50;99.90;;;;;;6035928;23;103058;-77
2023/03/01 07:53:26;;;;;;;34.95;22.15;;;3.70;99.90;;;;;;6034211;23;93025;-77
2023/03/01 07:56:10;;;;;;;36.95;22.58;;;3.80;99.90;;;;;;6033575;23;94870;-77
2023/03/01 07:58:39;;;;;;;34.65;23.20;;;3.90;99.90;;;;;;6083685;23;92778;-77
2023/03/01 08:01:08;;;;;;;36.65;25.40;;;3.90;99.90;;;;;;6058502;23;95744;-77
2023/03/01 08:03:36;;;;;;;28.52;20.83;;;4.10;99.90;;;;;;6058996;23;93089;-77
2023/03/01 08:06:05;;;;;;;30.83;21.85;;;4.30;99.90;;;;;;6034655;23;95306;-77
2023/03/01 08:08:33;;;;;;;33.53;22.42;;;4.60;99.90;;;;;;6036685;23;92504;-77
2023/03/01 08:11:02;;;;;;;28.77;21.90;;;4.70;99.90;;;;;;6058518;23;95759;-77
2023/03/01 08:13:30;;;;;;;28.05;20.20;;;4.90;99.90;;;;;;6010363;23;96034;-77
2023/03/01 08:16:06;;;;;;;27.27;21.35;;;5.20;99.90;;;;;;6036601;23;92933;-77
2023/03/01 08:18:34;;;;;;;26.20;20.20;;;5.50;99.90;;;;;;6059150;23;92398;-77
2023/03/01 08:21:03;;;;;;;28.05;20.75;;;5.80;99.90;;;;;;6057334;23;95619;-77
2023/03/01 08:23:30;;;;;;;29.02;22.50;;;6.10;99.90;;;;;;6009359;23;106526;-77
2023/03/01 08:26:08;;;;;;;27.70;22.27;;;6.40;99.90;;;;;;6036324;23;92880;-77
2023/03/01 08:28:35;;;;;;;32.55;20.90;;;6.80;99.90;;;;;;6058146;23;92371;-77
2023/03/01 08:31:02;;;;;;;29.75;22.80;;;6.90;99.90;;;;;;6058845;23;93142;-77
2023/03/01 08:33:29;;;;;;;39.15;24.65;;;7.00;99.90;;;;;;6058184;23;94225;-77
2023/03/01 08:36:07;;;;;;;34.22;25.42;;;7.10;99.90;;;;;;6036324;23;92417;-77
2023/03/01 08:38:34;;;;;;;35.45;23.88;;;7.10;99.90;;;;;;6011063;23;91742;-77
2023/03/01 08:41:03;;;;;;;34.88;25.15;;;6.90;99.90;;;;;;6036138;23;92820;-77
2023/03/01 08:43:30;;;;;;;38.03;25.63;;;6.70;99.90;;;;;;6035700;23;93192;-77
2023/03/01 08:45:57;;;;;;;37.15;25.70;;;6.60;99.90;;;;;;6034887;23;95292;-77
2023/03/01 08:48:27;;;;;;;37.03;25.17;;;6.30;99.90;;;;;;6035974;23;92354;-77
2023/03/01 08:50:54;;;;;;;37.17;24.67;;;6.10;99.90;;;;;;6035985;23;93103;-77
2023/03/01 08:53:21;;;;;;;39.58;27.02;;;6.00;99.90;;;;;;6034256;23;93297;-77
2023/03/01 08:55:48;;;;;;;38.13;24.65;;;5.80;99.90;;;;;;6036113;23;92306;-77
2023/03/01 08:58:16;;;;;;;32.75;23.90;;;5.60;99.90;;;;;;6058320;23;92490;-77
2023/03/01 09:00:43;;;;;;;36.80;24.17;;;5.50;99.90;;;;;;6082538;23;99804;-77
2023/03/01 09:03:10;;;;;;;36.58;24.70;;;5.30;99.90;;;;;;6058886;23;95697;-77
2023/03/01 09:05:37;;;;;;;32.47;23.13;;;5.10;99.90;;;;;;6058528;23;92479;-77
2023/03/01 09:08:05;;;;;;;34.55;23.58;;;5.00;99.90;;;;;;6058552;23;92502;-77
2023/03/01 09:10:32;;;;;;;36.88;24.73;;;4.90;99.90;;;;;;6056443;23;94832;-77
2023/03/01 09:12:59;;;;;;;32.03;21.73;;;4.80;99.90;;;;;;6058254;23;95403;-77
2023/03/01 09:15:25;;;;;;;32.30;21.05;;;4.70;99.90;;;;;;6058256;23;94682;-77
2023/03/01 09:17:52;;;;;;;26.00;19.13;;;4.60;99.90;;;;;;6058557;23;92444;-77
2023/03/01 09:20:19;;;;;;;24.90;18.08;;;4.40;99.90;;;;;;6035573;23;93066;-77
2023/03/01 09:22:46;;;;;;;32.58;22.05;;;4.30;99.90;;;;;;6059194;23;93009;-77
2023/03/01 09:25:14;;;;;;;31.20;20.90;;;4.20;99.90;;;;;;6059550;23;92987;-77
2023/03/01 09:27:41;;;;;;;27.63;19.40;;;4.10;99.90;;;;;;6037621;23;91653;-77
2023/03/01 09:30:09;;;;;;;32.50;18.35;;;4.00;99.90;;;;;;6059478;23;92990;-77
2023/03/01 09:32:36;;;;;;;47.58;18.10;;;4.00;99.90;;;;;;6059188;23;92977;-77
2023/03/01 09:35:04;;;;;;;44.88;18.13;;;4.00;99.90;;;;;;6058001;23;94948;-77
2023/03/01 09:37:34;;;;;;;48.17;19.65;;;4.00;99.90;;;;;;6059354;23;92476;-77
2023/03/01 09:40:03;;;;;;;26.50;19.30;;;4.20;99.90;;;;;;6036837;23;93182;-77
2023/03/01 09:42:35;;;;;;;28.55;19.08;;;4.30;99.90;;;;;;6036597;23;93066;-77
2023/03/01 09:45:21;;;;;;;28.20;19.70;;;4.40;99.90;;;;;;6035267;23;92341;-77
2023/03/01 09:47:48;;;;;;;25.80;19.05;;;4.40;99.90;;;;;;6037225;23;92631;-77
2023/03/01 09:50:20;;;;;;;28.90;19.83;;;4.40;99.90;;;;;;6035221;23;93193;-77
2023/03/01 09:52:53;;;;;;;29.95;20.77;;;4.50;99.90;;;;;;6037563;23;92737;-77
2023/03/01 09:55:37;;;;;;;25.40;18.30;;;4.50;99.90;;;;;;6036769;23;92326;-77
2023/03/01 09:58:43;;;;;;;28.08;19.73;;;4.60;99.90;;;;;;6037101;23;92294;-77
2023/03/01 10:01:13;;;;;;;29.25;20.00;;;4.70;99.90;;;;;;6009490;23;96625;-77
2023/03/01 10:03:55;;;;;;;29.45;19.25;;;4.80;99.90;;;;;;6050817;23;96709;-77
2023/03/01 10:06:23;;;;;;;27.05;19.85;;;4.80;99.90;;;;;;6065973;23;92356;-77
2023/03/01 10:09:04;;;;;;;26.25;18.73;;;4.90;99.90;;;;;;6066347;23;93315;-77
2023/03/01 10:11:37;;;;;;;26.48;19.30;;;5.00;99.90;;;;;;6039972;23;95736;-77
2023/03/01 10:14:31;;;;;;;28.35;19.80;;;5.20;99.90;;;;;;6066053;23;93184;-77
2023/03/01 10:17:18;;;;;;;26.77;20.05;;;5.30;99.90;;;;;;6066288;23;92362;-77
2023/03/01 10:19:46;;;;;;;29.85;22.55;;;5.40;99.90;;;;;;6026170;23;91657;-77
2023/03/01 10:22:21;;;;;;;27.50;20.77;;;5.50;99.90;;;;;;6039529;23;102048;-77
2023/03/01 10:24:48;;;;;;;;;;;5.60;99.90;;;;;;6065925;23;92863;-78
2023/03/01 10:27:39;;;;;;;27.73;19.20;;;5.50;99.90;;;;;;6066756;23;94805;-78
2023/03/01 10:30:31;;;;;;;28.92;19.67;;;5.60;99.90;;;;;;6066186;23;92303;-78
2023/03/01 10:32:58;;;;;;;29.15;18.63;;;5.70;99.90;;;;;;6040027;23;93095;-78
2023/03/01 10:35:33;;;;;;;28.23;18.95;;;5.70;99.90;;;;;;6065471;23;93123;-78
2023/03/01 10:38:09;;;;;;;25.67;18.05;;;5.70;99.90;;;;;;6064650;23;92548;-78
2023/03/01 10:40:59;;;;;;;28.75;18.85;;;5.80;99.90;;;;;;6065996;23;93018;-78
2023/03/01 10:43:32;;;;;;;21.85;16.17;;;5.80;99.90;;;;;;6065887;23;93119;-78
2023/03/01 10:45:59;;;;;;;27.42;19.60;;;5.80;99.90;;;;;;6064818;23;95247;-78
2023/03/01 10:48:28;;;;;;;20.33;15.88;;;5.90;99.90;;;;;;6064353;23;92535;-78
2023/03/01 10:50:57;;;;;;;21.80;14.43;;;6.00;99.90;;;;;;6066106;23;93053;-77
2023/03/01 10:53:57;;;;;;;24.73;17.13;;;6.10;99.90;;;;;;6053453;23;95748;-77
2023/03/01 10:56:25;;;;;;;17.13;12.63;;;6.20;99.90;;;;;;5949095;23;95515;-77
2023/03/01 10:59:01;;;;;;;15.40;11.43;;;6.30;99.90;;;;;;6036693;23;92344;-77
2023/03/01 11:01:34;;;;;;;18.45;12.93;;;6.50;99.90;;;;;;6011400;23;92834;-77
2023/03/01 11:04:05;;;;;;;15.15;10.18;;;6.50;99.90;;;;;;6011486;23;93154;-77
2023/03/01 11:06:33;;;;;;;12.20;9.38;;;6.60;99.90;;;;;;6010851;23;95487;-77
2023/03/01 11:09:15;;;;;;;16.48;11.10;;;6.60;99.90;;;;;;6012079;23;93068;-77
2023/03/01 11:11:42;;;;;;;19.05;12.40;;;6.80;99.90;;;;;;6011238;23;91745;-77
2023/03/01 11:14:24;;;;;;;19.33;13.95;;;6.80;99.90;;;;;;6010662;23;99365;-78
2023/03/01 11:17:11;;;;;;;16.08;11.23;;;6.90;99.90;;;;;;6010758;23;94192;-77
2023/03/01 11:19:38;;;;;;;16.40;12.18;;;6.90;99.90;;;;;;6035047;23;94879;-77
2023/03/01 11:22:12;;;;;;;19.10;11.45;;;6.90;99.90;;;;;;6011374;23;92949;-77
2023/03/01 11:24:53;;;;;;;18.23;12.95;;;7.00;99.90;;;;;;6010294;23;95687;-78
2023/03/01 11:27:39;;;;;;;21.73;14.23;;;7.00;99.90;;;;;;6010624;23;94374;-77
2023/03/01 11:30:18;;;;;;;18.40;13.05;;;7.10;99.90;;;;;;6011263;23;92421;-77
2023/03/01 11:33:04;;;;;;;22.65;16.08;;;7.20;99.90;;;;;;6010692;23;92493;-77
2023/03/01 11:35:35;;;;;;;20.48;14.27;;;7.30;99.90;;;;;;6010841;23;95813;-77
2023/03/01 11:38:02;;;;;;;21.63;13.98;;;7.40;99.90;;;;;;6036873;23;93189;-77
2023/03/01 11:41:17;;;;;;;19.65;12.88;;;7.40;99.90;;;;;;6036547;23;92357;-77
2023/03/01 11:44:02;;;;;;;20.15;12.40;;;7.60;99.90;;;;;;6026299;23;92410;-77
2023/03/01 11:46:35;;;;;;;18.60;14.18;;;7.60;99.90;;;;;;5986100;23;98276;-77
2023/03/01 11:49:40;;;;;;;19.33;14.63;;;7.60;99.90;;;;;;6036272;23;95516;-77
2023/03/01 11:52:14;;;;;;;18.92;13.98;;;7.70;99.90;;;;;;5967865;23;92567;-77
2023/03/01 11:54:44;;;;;;;14.68;10.88;;;7.70;99.90;;;;;;6036360;23;92394;-77
2023/03/01 11:57:38;;;;;;;19.75;14.75;;;7.80;99.90;;;;;;6036452;23;93129;-77
2023/03/01 12:00:22;;;;;;;17.42;12.02;;;7.90;99.90;;;;;;6010644;23;95745;-77
2023/03/01 12:03:20;;;;;;;17.70;13.38;;;8.00;99.90;;;;;;6036305;23;92291;-77
2023/03/01 12:06:23;;;;;;;14.25;10.68;;;8.00;99.90;;;;;;6036752;23;91571;-77
2023/03/01 12:09:21;;;;;;;14.40;10.02;;;8.10;99.90;;;;;;6058972;23;94192;-77
2023/03/01 12:12:14;;;;;;;15.68;11.05;;;8.20;99.80;;;;;;6036000;23;93122;-77
2023/03/01 12:15:27;;;;;;;15.50;11.63;;;8.20;99.90;;;;;;6033290;23;94832;-77
2023/03/01 12:18:04;;;;;;;13.05;10.02;;;8.30;99.80;;;;;;6008251;23;92410;-77
2023/03/01 12:20:46;;;;;;;15.00;11.20;;;8.20;99.40;;;;;;6010473;23;95794;-77
2023/03/01 12:23:35;;;;;;;17.35;12.73;;;8.30;99.60;;;;;;6036453;23;93347;-77
2023/03/01 12:26:31;;;;;;;18.10;12.98;;;8.30;99.90;;;;;;5982109;23;92434;-77
2023/03/01 12:29:06;;;;;;;16.63;11.82;;;8.40;99.90;;;;;;5973781;23;92488;-77
2023/03/01 12:31:48;;;;;;;16.73;12.07;;;8.30;99.90;;;;;;6007330;23;93083;-77
2023/03/01 12:34:18;;;;;;;17.80;13.45;;;8.40;99.90;;;;;;6007635;23;92960;-77
2023/03/01 12:37:09;;;;;;;15.82;11.13;;;8.40;99.90;;;;;;5981318;23;92558;-77
2023/03/01 12:39:45;;;;;;;14.05;10.88;;;8.30;99.90;;;;;;6007467;23;92336;-77
2023/03/01 12:42:15;;;;;;;16.88;12.40;;;8.30;99.90;;;;;;6005670;23;94762;-77
2023/03/01 12:45:05;;;;;;;15.70;12.43;;;8.30;99.60;;;;;;5981458;23;96312;-77
2023/03/01 12:47:54;;;;;;;12.93;10.73;;;8.40;99.50;;;;;;6007211;23;92288;-77
2023/03/01 12:50:25;;;;;;;15.88;11.40;;;8.40;99.60;;;;;;5981856;23;92477;-77
2023/03/01 12:52:56;;;;;;;12.80;9.95;;;8.50;99.50;;;;;;5981807;23;93200;-77
2023/03/01 12:55:31;;;;;;;13.68;9.70;;;8.50;99.10;;;;;;6005694;23;95606;-77
2023/03/01 12:58:24;;;;;;;12.43;9.95;;;8.50;98.80;;;;;;6008892;23;92838;-77